sensor_id;sensor_type;location;lat;lon;timestamp;P1;durP1;ratioP1;P2;durP2;ratioP2
21339;SDS011;10828;47.064;15.422;2022-07-05T00:00:11;7.13;;;3.30;;
21339;SDS011;10828;47.064;15.422;2022-07-05T00:02:37;8.17;;;3.57;;
21339;SDS011;10828;47.064;15.422;2022-07-05T00:05:04;6.67;;;2.90;;
21339;SDS011;10828;47.064;15.422;2022-07-05T00:07:31;8.93;;;2.80;;
21339;SDS011;10828;47.064;15.422;2022-07-05T00:09:57;7.37;;;3.03;;
21339;SDS011;10828;47.064;15.422;2022-07-05T00:12:27;10.90;;;3.00;;
21339;SDS011;10828;47.064;15.422;2022-07-05T00:14:55;4.90;;;2.90;;
21339;SDS011;10828;47.064;15.422;2022-07-05T00:17:22;8.57;;;2.90;;
21339;SDS011;10828;47.064;15.422;2022-07-05T00:19:54;5.87;;;3.10;;
21339;SDS011;10828;47.064;15.422;2022-07-05T00:22:24;6.63;;;3.07;;
21339;SDS011;10828;47.064;15.422;2022-07-05T00:24:50;7.13;;;3.17;;
21339;SDS011;10828;47.064;15.422;2022-07-05T00:27:22;6.50;;;3.07;;
21339;SDS011;10828;47.064;15.422;2022-07-05T00:29:48;5.83;;;3.20;;
21339;SDS011;10828;47.064;15.422;2022-07-05T00:32:14;7.37;;;3.90;;
21339;SDS011;10828;47.064;15.422;2022-07-05T00:34:41;8.50;;;3.23;;
21339;SDS011;10828;47.064;15.422;2022-07-05T00:37:07;6.13;;;3.80;;
21339;SDS011;10828;47.064;15.422;2022-07-05T00:39:35;6.17;;;2.93;;
21339;SDS011;10828;47.064;15.422;2022-07-05T00:42:03;7.50;;;3.60;;
21339;SDS011;10828;47.064;15.422;2022-07-05T00:44:31;6.17;;;3.07;;
21339;SDS011;10828;47.064;15.422;2022-07-05T00:47:00;7.87;;;3.00;;
21339;SDS011;10828;47.064;15.422;2022-07-05T00:49:26;8.00;;;3.70;;
21339;SDS011;10828;47.064;15.422;2022-07-05T00:51:53;5.57;;;2.63;;
21339;SDS011;10828;47.064;15.422;2022-07-05T00:54:20;6.03;;;3.00;;
21339;SDS011;10828;47.064;15.422;2022-07-05T00:56:46;8.40;;;3.07;;
21339;SDS011;10828;47.064;15.422;2022-07-05T00:59:13;6.00;;;2.87;;
21339;SDS011;10828;47.064;15.422;2022-07-05T01:01:40;6.43;;;2.60;;
21339;SDS011;10828;47.064;15.422;2022-07-05T01:04:06;7.00;;;2.70;;
21339;SDS011;10828;47.064;15.422;2022-07-05T01:06:32;6.27;;;3.17;;
21339;SDS011;10828;47.064;15.422;2022-07-05T01:09:00;6.90;;;3.07;;
21339;SDS011;10828;47.064;15.422;2022-07-05T01:11:26;4.87;;;2.73;;
21339;SDS011;10828;47.064;15.422;2022-07-05T01:13:54;6.60;;;3.70;;
21339;SDS011;10828;47.064;15.422;2022-07-05T01:16:20;7.07;;;3.33;;
21339;SDS011;10828;47.064;15.422;2022-07-05T01:18:47;5.97;;;2.83;;
21339;SDS011;10828;47.064;15.422;2022-07-05T01:21:13;6.17;;;3.03;;
21339;SDS011;10828;47.064;15.422;2022-07-05T01:23:43;6.23;;;2.97;;
21339;SDS011;10828;47.064;15.422;2022-07-05T01:26:10;4.80;;;3.00;;
21339;SDS011;10828;47.064;15.422;2022-07-05T01:28:39;7.03;;;3.30;;
21339;SDS011;10828;47.064;15.422;2022-07-05T01:31:06;5.40;;;3.10;;
21339;SDS011;10828;47.064;15.422;2022-07-05T01:33:32;6.67;;;2.87;;
21339;SDS011;10828;47.064;15.422;2022-07-05T01:35:58;5.27;;;3.10;;
21339;SDS011;10828;47.064;15.422;2022-07-05T01:38:26;6.50;;;3.23;;
21339;SDS011;10828;47.064;15.422;2022-07-05T01:40:52;7.13;;;3.53;;
21339;SDS011;10828;47.064;15.422;2022-07-05T01:43:21;8.40;;;3.60;;
21339;SDS011;10828;47.064;15.422;2022-07-05T01:45:48;10.07;;;4.27;;
21339;SDS011;10828;47.064;15.422;2022-07-05T01:48:18;8.70;;;4.43;;
21339;SDS011;10828;47.064;15.422;2022-07-05T01:53:14;7.70;;;4.10;;
21339;SDS011;10828;47.064;15.422;2022-07-05T01:55:40;9.40;;;4.30;;
21339;SDS011;10828;47.064;15.422;2022-07-05T01:58:13;9.40;;;4.90;;
21339;SDS011;10828;47.064;15.422;2022-07-05T02:00:45;7.80;;;4.13;;
21339;SDS011;10828;47.064;15.422;2022-07-05T02:03:13;8.27;;;4.70;;
21339;SDS011;10828;47.064;15.422;2022-07-05T02:05:41;10.53;;;5.00;;
21339;SDS011;10828;47.064;15.422;2022-07-05T02:08:09;10.43;;;5.20;;
21339;SDS011;10828;47.064;15.422;2022-07-05T02:10:39;10.67;;;5.90;;
21339;SDS011;10828;47.064;15.422;2022-07-05T02:13:06;10.13;;;5.70;;
21339;SDS011;10828;47.064;15.422;2022-07-05T02:15:38;9.43;;;5.47;;
21339;SDS011;10828;47.064;15.422;2022-07-05T02:18:05;8.83;;;5.63;;
21339;SDS011;10828;47.064;15.422;2022-07-05T02:20:32;12.20;;;6.37;;
21339;SDS011;10828;47.064;15.422;2022-07-05T02:22:58;9.10;;;5.30;;
21339;SDS011;10828;47.064;15.422;2022-07-05T02:25:25;7.50;;;4.90;;
21339;SDS011;10828;47.064;15.422;2022-07-05T02:27:54;11.40;;;5.10;;
21339;SDS011;10828;47.064;15.422;2022-07-05T02:30:21;9.70;;;5.43;;
21339;SDS011;10828;47.064;15.422;2022-07-05T02:32:48;8.93;;;4.80;;
21339;SDS011;10828;47.064;15.422;2022-07-05T02:35:14;13.47;;;5.70;;
21339;SDS011;10828;47.064;15.422;2022-07-05T02:37:41;15.37;;;5.37;;
21339;SDS011;10828;47.064;15.422;2022-07-05T02:40:09;7.50;;;5.30;;
21339;SDS011;10828;47.064;15.422;2022-07-05T02:42:43;11.23;;;4.57;;
21339;SDS011;10828;47.064;15.422;2022-07-05T02:45:15;9.67;;;5.10;;
21339;SDS011;10828;47.064;15.422;2022-07-05T02:47:47;6.60;;;3.50;;
21339;SDS011;10828;47.064;15.422;2022-07-05T02:52:46;7.63;;;4.00;;
21339;SDS011;10828;47.064;15.422;2022-07-05T02:55:12;7.27;;;4.23;;
21339;SDS011;10828;47.064;15.422;2022-07-05T02:57:38;9.30;;;4.33;;
21339;SDS011;10828;47.064;15.422;2022-07-05T03:00:05;8.67;;;5.60;;
21339;SDS011;10828;47.064;15.422;2022-07-05T03:02:32;9.20;;;5.33;;
21339;SDS011;10828;47.064;15.422;2022-07-05T03:04:58;11.23;;;5.10;;
21339;SDS011;10828;47.064;15.422;2022-07-05T03:07:24;8.97;;;5.43;;
21339;SDS011;10828;47.064;15.422;2022-07-05T03:09:50;10.90;;;5.33;;
21339;SDS011;10828;47.064;15.422;2022-07-05T03:12:16;9.43;;;4.63;;
21339;SDS011;10828;47.064;15.422;2022-07-05T03:14:45;10.00;;;5.80;;
21339;SDS011;10828;47.064;15.422;2022-07-05T03:17:12;10.83;;;6.07;;
21339;SDS011;10828;47.064;15.422;2022-07-05T03:19:38;10.83;;;5.63;;
21339;SDS011;10828;47.064;15.422;2022-07-05T03:22:04;9.73;;;5.70;;
21339;SDS011;10828;47.064;15.422;2022-07-05T03:24:30;8.77;;;5.90;;
21339;SDS011;10828;47.064;15.422;2022-07-05T03:26:57;8.23;;;5.50;;
21339;SDS011;10828;47.064;15.422;2022-07-05T03:29:23;12.73;;;6.60;;
21339;SDS011;10828;47.064;15.422;2022-07-05T03:31:56;11.80;;;6.87;;
21339;SDS011;10828;47.064;15.422;2022-07-05T03:34:22;8.90;;;5.57;;
21339;SDS011;10828;47.064;15.422;2022-07-05T03:36:55;9.97;;;5.80;;
21339;SDS011;10828;47.064;15.422;2022-07-05T03:39:27;10.07;;;5.17;;
21339;SDS011;10828;47.064;15.422;2022-07-05T03:41:53;8.80;;;5.60;;
21339;SDS011;10828;47.064;15.422;2022-07-05T03:44:20;14.00;;;7.07;;
21339;SDS011;10828;47.064;15.422;2022-07-05T03:46:49;7.93;;;4.90;;
21339;SDS011;10828;47.064;15.422;2022-07-05T03:49:18;9.33;;;5.07;;
21339;SDS011;10828;47.064;15.422;2022-07-05T03:51:45;7.40;;;4.80;;
21339;SDS011;10828;47.064;15.422;2022-07-05T03:54:12;8.10;;;4.77;;
21339;SDS011;10828;47.064;15.422;2022-07-05T03:56:38;9.10;;;5.50;;
21339;SDS011;10828;47.064;15.422;2022-07-05T03:59:04;8.50;;;5.07;;
21339;SDS011;10828;47.064;15.422;2022-07-05T04:01:30;8.03;;;4.93;;
21339;SDS011;10828;47.064;15.422;2022-07-05T04:03:56;7.00;;;4.90;;
21339;SDS011;10828;47.064;15.422;2022-07-05T04:06:22;9.70;;;5.70;;
21339;SDS011;10828;47.064;15.422;2022-07-05T04:08:48;7.93;;;5.67;;
21339;SDS011;10828;47.064;15.422;2022-07-05T04:11:14;8.77;;;5.33;;
21339;SDS011;10828;47.064;15.422;2022-07-05T04:13:43;9.20;;;5.80;;
21339;SDS011;10828;47.064;15.422;2022-07-05T04:16:11;12.33;;;5.23;;
21339;SDS011;10828;47.064;15.422;2022-07-05T04:18:39;11.60;;;6.20;;
21339;SDS011;10828;47.064;15.422;2022-07-05T04:21:05;8.63;;;5.87;;
21339;SDS011;10828;47.064;15.422;2022-07-05T04:23:31;10.90;;;6.63;;
21339;SDS011;10828;47.064;15.422;2022-07-05T04:25:57;23.83;;;15.63;;
21339;SDS011;10828;47.064;15.422;2022-07-05T04:28:24;9.30;;;5.57;;
21339;SDS011;10828;47.064;15.422;2022-07-05T04:30:51;11.80;;;5.97;;
21339;SDS011;10828;47.064;15.422;2022-07-05T04:33:25;7.87;;;5.40;;
21339;SDS011;10828;47.064;15.422;2022-07-05T04:35:51;10.73;;;5.47;;
21339;SDS011;10828;47.064;15.422;2022-07-05T04:38:17;10.77;;;5.77;;
21339;SDS011;10828;47.064;15.422;2022-07-05T04:43:13;10.90;;;5.63;;
21339;SDS011;10828;47.064;15.422;2022-07-05T04:45:40;8.47;;;5.03;;
21339;SDS011;10828;47.064;15.422;2022-07-05T04:48:07;7.90;;;5.03;;
21339;SDS011;10828;47.064;15.422;2022-07-05T04:50:33;9.30;;;5.60;;
21339;SDS011;10828;47.064;15.422;2022-07-05T04:52:59;8.53;;;5.50;;
21339;SDS011;10828;47.064;15.422;2022-07-05T04:55:26;10.13;;;5.50;;
21339;SDS011;10828;47.064;15.422;2022-07-05T04:57:52;10.40;;;5.83;;
21339;SDS011;10828;47.064;15.422;2022-07-05T05:00:18;10.13;;;5.93;;
21339;SDS011;10828;47.064;15.422;2022-07-05T05:02:44;11.57;;;5.77;;
21339;SDS011;10828;47.064;15.422;2022-07-05T05:05:10;11.60;;;6.97;;
21339;SDS011;10828;47.064;15.422;2022-07-05T05:07:42;7.87;;;5.70;;
21339;SDS011;10828;47.064;15.422;2022-07-05T05:10:15;12.10;;;7.80;;
21339;SDS011;10828;47.064;15.422;2022-07-05T05:12:41;12.30;;;6.63;;
21339;SDS011;10828;47.064;15.422;2022-07-05T05:15:07;18.67;;;7.50;;
21339;SDS011;10828;47.064;15.422;2022-07-05T05:17:40;12.27;;;7.30;;
21339;SDS011;10828;47.064;15.422;2022-07-05T05:20:09;12.10;;;7.40;;
21339;SDS011;10828;47.064;15.422;2022-07-05T05:22:36;13.87;;;8.00;;
21339;SDS011;10828;47.064;15.422;2022-07-05T05:25:05;12.20;;;7.67;;
21339;SDS011;10828;47.064;15.422;2022-07-05T05:27:32;14.10;;;8.30;;
21339;SDS011;10828;47.064;15.422;2022-07-05T05:29:58;14.77;;;8.27;;
21339;SDS011;10828;47.064;15.422;2022-07-05T05:32:24;13.43;;;8.00;;
21339;SDS011;10828;47.064;15.422;2022-07-05T05:34:50;10.80;;;6.97;;
21339;SDS011;10828;47.064;15.422;2022-07-05T05:37:17;12.73;;;6.87;;
21339;SDS011;10828;47.064;15.422;2022-07-05T05:39:43;14.50;;;7.70;;
21339;SDS011;10828;47.064;15.422;2022-07-05T05:42:10;12.77;;;6.70;;
21339;SDS011;10828;47.064;15.422;2022-07-05T05:44:36;12.97;;;6.03;;
21339;SDS011;10828;47.064;15.422;2022-07-05T05:47:03;12.30;;;5.93;;
21339;SDS011;10828;47.064;15.422;2022-07-05T05:49:30;11.93;;;5.90;;
21339;SDS011;10828;47.064;15.422;2022-07-05T05:51:56;9.90;;;5.37;;
21339;SDS011;10828;47.064;15.422;2022-07-05T05:54:24;12.17;;;6.07;;
21339;SDS011;10828;47.064;15.422;2022-07-05T05:56:50;13.33;;;7.40;;
21339;SDS011;10828;47.064;15.422;2022-07-05T05:59:17;19.20;;;6.77;;
21339;SDS011;10828;47.064;15.422;2022-07-05T06:01:43;12.33;;;6.20;;
21339;SDS011;10828;47.064;15.422;2022-07-05T06:04:09;23.03;;;7.07;;
21339;SDS011;10828;47.064;15.422;2022-07-05T06:06:36;22.37;;;7.37;;
21339;SDS011;10828;47.064;15.422;2022-07-05T06:09:03;10.53;;;6.10;;
21339;SDS011;10828;47.064;15.422;2022-07-05T06:11:29;10.07;;;5.23;;
21339;SDS011;10828;47.064;15.422;2022-07-05T06:13:55;9.63;;;4.90;;
21339;SDS011;10828;47.064;15.422;2022-07-05T06:16:23;11.40;;;5.40;;
21339;SDS011;10828;47.064;15.422;2022-07-05T06:18:49;10.10;;;5.53;;
21339;SDS011;10828;47.064;15.422;2022-07-05T06:21:15;9.83;;;5.47;;
21339;SDS011;10828;47.064;15.422;2022-07-05T06:23:41;9.17;;;4.80;;
21339;SDS011;10828;47.064;15.422;2022-07-05T06:26:07;8.37;;;5.60;;
21339;SDS011;10828;47.064;15.422;2022-07-05T06:28:34;11.97;;;5.23;;
21339;SDS011;10828;47.064;15.422;2022-07-05T06:31:00;11.80;;;5.53;;
21339;SDS011;10828;47.064;15.422;2022-07-05T06:33:26;9.77;;;5.60;;
21339;SDS011;10828;47.064;15.422;2022-07-05T06:35:53;10.50;;;5.10;;
21339;SDS011;10828;47.064;15.422;2022-07-05T06:38:19;7.43;;;5.03;;
21339;SDS011;10828;47.064;15.422;2022-07-05T06:40:45;12.67;;;4.93;;
21339;SDS011;10828;47.064;15.422;2022-07-05T06:43:12;8.97;;;5.07;;
21339;SDS011;10828;47.064;15.422;2022-07-05T06:45:40;10.43;;;5.50;;
21339;SDS011;10828;47.064;15.422;2022-07-05T06:48:12;10.33;;;5.60;;
21339;SDS011;10828;47.064;15.422;2022-07-05T06:50:39;7.57;;;5.03;;
21339;SDS011;10828;47.064;15.422;2022-07-05T06:53:05;10.50;;;5.20;;
21339;SDS011;10828;47.064;15.422;2022-07-05T06:55:33;12.83;;;5.27;;
21339;SDS011;10828;47.064;15.422;2022-07-05T06:58:03;10.23;;;5.37;;
21339;SDS011;10828;47.064;15.422;2022-07-05T07:00:31;9.93;;;5.10;;
21339;SDS011;10828;47.064;15.422;2022-07-05T07:02:57;14.00;;;5.63;;
21339;SDS011;10828;47.064;15.422;2022-07-05T07:05:24;8.43;;;4.80;;
21339;SDS011;10828;47.064;15.422;2022-07-05T07:07:50;9.57;;;4.70;;
21339;SDS011;10828;47.064;15.422;2022-07-05T07:10:36;22.13;;;5.40;;
21339;SDS011;10828;47.064;15.422;2022-07-05T07:13:02;10.97;;;5.13;;
21339;SDS011;10828;47.064;15.422;2022-07-05T07:15:30;9.53;;;4.93;;
21339;SDS011;10828;47.064;15.422;2022-07-05T07:17:58;11.97;;;5.30;;
21339;SDS011;10828;47.064;15.422;2022-07-05T07:20:26;11.10;;;5.80;;
21339;SDS011;10828;47.064;15.422;2022-07-05T07:22:54;11.43;;;4.80;;
21339;SDS011;10828;47.064;15.422;2022-07-05T07:25:21;9.03;;;5.00;;
21339;SDS011;10828;47.064;15.422;2022-07-05T07:27:53;8.13;;;4.37;;
21339;SDS011;10828;47.064;15.422;2022-07-05T07:30:20;9.17;;;4.33;;
21339;SDS011;10828;47.064;15.422;2022-07-05T07:32:51;11.27;;;5.17;;
21339;SDS011;10828;47.064;15.422;2022-07-05T07:35:17;17.57;;;9.63;;
21339;SDS011;10828;47.064;15.422;2022-07-05T07:37:44;8.87;;;4.40;;
21339;SDS011;10828;47.064;15.422;2022-07-05T07:40:10;8.60;;;4.60;;
21339;SDS011;10828;47.064;15.422;2022-07-05T07:42:38;13.13;;;3.90;;
21339;SDS011;10828;47.064;15.422;2022-07-05T07:45:04;5.80;;;3.67;;
21339;SDS011;10828;47.064;15.422;2022-07-05T07:47:38;4.60;;;3.20;;
21339;SDS011;10828;47.064;15.422;2022-07-05T07:50:05;6.70;;;3.70;;
21339;SDS011;10828;47.064;15.422;2022-07-05T07:52:32;6.83;;;3.10;;
21339;SDS011;10828;47.064;15.422;2022-07-05T07:55:01;6.03;;;3.13;;
21339;SDS011;10828;47.064;15.422;2022-07-05T07:57:28;10.50;;;3.90;;
21339;SDS011;10828;47.064;15.422;2022-07-05T07:59:54;6.80;;;3.40;;
21339;SDS011;10828;47.064;15.422;2022-07-05T08:02:28;10.50;;;3.90;;
21339;SDS011;10828;47.064;15.422;2022-07-05T08:04:57;7.37;;;3.40;;
21339;SDS011;10828;47.064;15.422;2022-07-05T08:07:23;10.67;;;3.20;;
21339;SDS011;10828;47.064;15.422;2022-07-05T08:09:49;7.77;;;3.30;;
21339;SDS011;10828;47.064;15.422;2022-07-05T08:12:17;7.80;;;3.07;;
21339;SDS011;10828;47.064;15.422;2022-07-05T08:14:44;5.43;;;2.87;;
21339;SDS011;10828;47.064;15.422;2022-07-05T08:17:11;6.70;;;2.90;;
21339;SDS011;10828;47.064;15.422;2022-07-05T08:19:39;4.87;;;2.60;;
21339;SDS011;10828;47.064;15.422;2022-07-05T08:22:24;5.03;;;3.10;;
21339;SDS011;10828;47.064;15.422;2022-07-05T08:24:51;4.93;;;2.40;;
21339;SDS011;10828;47.064;15.422;2022-07-05T08:27:17;5.63;;;2.60;;
21339;SDS011;10828;47.064;15.422;2022-07-05T08:29:43;4.33;;;2.57;;
21339;SDS011;10828;47.064;15.422;2022-07-05T08:32:09;4.07;;;2.40;;
21339;SDS011;10828;47.064;15.422;2022-07-05T08:34:36;4.00;;;2.30;;
21339;SDS011;10828;47.064;15.422;2022-07-05T08:37:04;6.77;;;2.60;;
21339;SDS011;10828;47.064;15.422;2022-07-05T08:39:37;15.53;;;9.37;;
21339;SDS011;10828;47.064;15.422;2022-07-05T08:42:03;7.93;;;3.17;;
21339;SDS011;10828;47.064;15.422;2022-07-05T08:44:41;4.27;;;2.37;;
21339;SDS011;10828;47.064;15.422;2022-07-05T08:47:11;5.20;;;2.33;;
21339;SDS011;10828;47.064;15.422;2022-07-05T08:49:39;7.20;;;2.00;;
21339;SDS011;10828;47.064;15.422;2022-07-05T08:52:10;5.40;;;2.60;;
21339;SDS011;10828;47.064;15.422;2022-07-05T08:54:37;5.23;;;2.07;;
21339;SDS011;10828;47.064;15.422;2022-07-05T08:57:03;4.33;;;1.90;;
21339;SDS011;10828;47.064;15.422;2022-07-05T08:59:36;2.60;;;1.70;;
21339;SDS011;10828;47.064;15.422;2022-07-05T09:02:02;7.80;;;2.33;;
21339;SDS011;10828;47.064;15.422;2022-07-05T09:04:30;5.53;;;2.20;;
21339;SDS011;10828;47.064;15.422;2022-07-05T09:06:59;4.40;;;1.83;;
21339;SDS011;10828;47.064;15.422;2022-07-05T09:09:40;4.03;;;1.60;;
21339;SDS011;10828;47.064;15.422;2022-07-05T09:12:08;4.23;;;1.60;;
21339;SDS011;10828;47.064;15.422;2022-07-05T09:14:35;7.00;;;2.10;;
21339;SDS011;10828;47.064;15.422;2022-07-05T09:17:03;3.03;;;1.50;;
21339;SDS011;10828;47.064;15.422;2022-07-05T09:19:32;3.53;;;1.80;;
21339;SDS011;10828;47.064;15.422;2022-07-05T09:22:03;3.20;;;1.70;;
21339;SDS011;10828;47.064;15.422;2022-07-05T09:27:09;2.63;;;1.40;;
21339;SDS011;10828;47.064;15.422;2022-07-05T09:29:35;2.93;;;1.40;;
21339;SDS011;10828;47.064;15.422;2022-07-05T09:32:01;6.80;;;1.63;;
21339;SDS011;10828;47.064;15.422;2022-07-05T09:34:28;2.67;;;1.20;;
21339;SDS011;10828;47.064;15.422;2022-07-05T09:37:01;7.13;;;4.23;;
21339;SDS011;10828;47.064;15.422;2022-07-05T09:39:41;5.83;;;1.60;;
21339;SDS011;10828;47.064;15.422;2022-07-05T09:44:37;3.13;;;1.43;;
21339;SDS011;10828;47.064;15.422;2022-07-05T09:47:13;2.67;;;1.33;;
21339;SDS011;10828;47.064;15.422;2022-07-05T09:49:49;3.07;;;1.43;;
21339;SDS011;10828;47.064;15.422;2022-07-05T09:55:09;6.03;;;1.53;;
21339;SDS011;10828;47.064;15.422;2022-07-05T09:57:37;4.90;;;1.10;;
21339;SDS011;10828;47.064;15.422;2022-07-05T10:00:07;3.80;;;1.53;;
21339;SDS011;10828;47.064;15.422;2022-07-05T10:02:44;3.67;;;1.50;;
21339;SDS011;10828;47.064;15.422;2022-07-05T10:05:17;2.13;;;1.10;;
21339;SDS011;10828;47.064;15.422;2022-07-05T10:07:44;5.93;;;1.50;;
21339;SDS011;10828;47.064;15.422;2022-07-05T10:10:16;4.00;;;1.10;;
21339;SDS011;10828;47.064;15.422;2022-07-05T10:12:43;2.93;;;0.90;;
21339;SDS011;10828;47.064;15.422;2022-07-05T10:15:10;4.00;;;1.20;;
21339;SDS011;10828;47.064;15.422;2022-07-05T10:20:08;2.60;;;1.00;;
21339;SDS011;10828;47.064;15.422;2022-07-05T10:22:36;3.83;;;1.00;;
21339;SDS011;10828;47.064;15.422;2022-07-05T10:25:03;4.30;;;1.20;;
21339;SDS011;10828;47.064;15.422;2022-07-05T10:27:41;2.60;;;0.77;;
21339;SDS011;10828;47.064;15.422;2022-07-05T10:30:08;3.53;;;0.70;;
21339;SDS011;10828;47.064;15.422;2022-07-05T10:32:34;8.00;;;1.10;;
21339;SDS011;10828;47.064;15.422;2022-07-05T10:35:01;3.25;;;1.17;;
21339;SDS011;10828;47.064;15.422;2022-07-05T10:37:31;3.05;;;1.40;;
21339;SDS011;10828;47.064;15.422;2022-07-05T10:39:58;3.28;;;1.08;;
21339;SDS011;10828;47.064;15.422;2022-07-05T10:42:26;3.00;;;1.00;;
21339;SDS011;10828;47.064;15.422;2022-07-05T10:44:52;2.30;;;0.93;;
21339;SDS011;10828;47.064;15.422;2022-07-05T10:47:18;7.20;;;1.23;;
21339;SDS011;10828;47.064;15.422;2022-07-05T10:49:58;0.93;;;0.50;;
21339;SDS011;10828;47.064;15.422;2022-07-05T10:52:25;4.03;;;1.23;;
21339;SDS011;10828;47.064;15.422;2022-07-05T10:57:37;0.77;;;0.65;;
21339;SDS011;10828;47.064;15.422;2022-07-05T11:00:07;2.75;;;0.80;;
21339;SDS011;10828;47.064;15.422;2022-07-05T11:02:34;5.80;;;0.77;;
21339;SDS011;10828;47.064;15.422;2022-07-05T11:05:02;4.00;;;0.80;;
21339;SDS011;10828;47.064;15.422;2022-07-05T11:10:19;2.47;;;0.85;;
21339;SDS011;10828;47.064;15.422;2022-07-05T11:12:45;3.03;;;1.10;;
21339;SDS011;10828;47.064;15.422;2022-07-05T11:15:11;5.63;;;1.05;;
21339;SDS011;10828;47.064;15.422;2022-07-05T11:17:41;2.63;;;0.70;;
21339;SDS011;10828;47.064;15.422;2022-07-05T11:22:37;2.95;;;0.60;;
21339;SDS011;10828;47.064;15.422;2022-07-05T11:25:05;1.02;;;0.35;;
21339;SDS011;10828;47.064;15.422;2022-07-05T11:27:32;0.98;;;0.55;;
21339;SDS011;10828;47.064;15.422;2022-07-05T11:29:58;1.23;;;0.55;;
21339;SDS011;10828;47.064;15.422;2022-07-05T11:34:54;3.63;;;0.70;;
21339;SDS011;10828;47.064;15.422;2022-07-05T11:37:25;3.17;;;0.60;;
21339;SDS011;10828;47.064;15.422;2022-07-05T11:42:45;5.97;;;0.77;;
21339;SDS011;10828;47.064;15.422;2022-07-05T11:45:12;2.75;;;0.85;;
21339;SDS011;10828;47.064;15.422;2022-07-05T11:47:46;4.53;;;1.13;;
21339;SDS011;10828;47.064;15.422;2022-07-05T11:50:12;3.30;;;0.50;;
21339;SDS011;10828;47.064;15.422;2022-07-05T11:52:40;2.92;;;0.60;;
21339;SDS011;10828;47.064;15.422;2022-07-05T11:55:09;1.25;;;0.50;;
21339;SDS011;10828;47.064;15.422;2022-07-05T11:57:36;2.67;;;0.50;;
21339;SDS011;10828;47.064;15.422;2022-07-05T12:00:03;0.93;;;0.32;;
21339;SDS011;10828;47.064;15.422;2022-07-05T12:02:42;1.88;;;0.52;;
21339;SDS011;10828;47.064;15.422;2022-07-05T12:05:09;6.68;;;0.75;;
21339;SDS011;10828;47.064;15.422;2022-07-05T12:07:36;2.60;;;0.60;;
21339;SDS011;10828;47.064;15.422;2022-07-05T12:10:03;1.13;;;0.50;;
21339;SDS011;10828;47.064;15.422;2022-07-05T12:12:48;2.65;;;0.65;;
21339;SDS011;10828;47.064;15.422;2022-07-05T12:15:16;4.63;;;0.63;;
21339;SDS011;10828;47.064;15.422;2022-07-05T12:17:48;2.83;;;0.70;;
21339;SDS011;10828;47.064;15.422;2022-07-05T12:20:20;2.28;;;0.70;;
21339;SDS011;10828;47.064;15.422;2022-07-05T12:22:47;3.75;;;0.88;;
21339;SDS011;10828;47.064;15.422;2022-07-05T12:25:15;3.10;;;0.70;;
21339;SDS011;10828;47.064;15.422;2022-07-05T12:27:43;0.98;;;0.50;;
21339;SDS011;10828;47.064;15.422;2022-07-05T12:30:10;1.23;;;0.60;;
21339;SDS011;10828;47.064;15.422;2022-07-05T12:40:42;1.05;;;0.50;;
21339;SDS011;10828;47.064;15.422;2022-07-05T12:43:10;0.93;;;0.43;;
21339;SDS011;10828;47.064;15.422;2022-07-05T12:45:38;1.40;;;0.70;;
21339;SDS011;10828;47.064;15.422;2022-07-05T12:48:06;3.15;;;0.77;;
21339;SDS011;10828;47.064;15.422;2022-07-05T12:50:46;3.95;;;0.90;;
21339;SDS011;10828;47.064;15.422;2022-07-05T12:56:06;1.60;;;0.60;;
21339;SDS011;10828;47.064;15.422;2022-07-05T12:58:53;2.35;;;0.68;;
21339;SDS011;10828;47.064;15.422;2022-07-05T13:06:41;1.75;;;0.80;;
21339;SDS011;10828;47.064;15.422;2022-07-05T13:09:07;4.82;;;1.08;;
21339;SDS011;10828;47.064;15.422;2022-07-05T13:11:34;1.95;;;0.80;;
21339;SDS011;10828;47.064;15.422;2022-07-05T13:14:00;2.35;;;0.90;;
21339;SDS011;10828;47.064;15.422;2022-07-05T13:16:27;3.67;;;1.02;;
21339;SDS011;10828;47.064;15.422;2022-07-05T13:18:53;3.42;;;1.10;;
21339;SDS011;10828;47.064;15.422;2022-07-05T13:21:19;2.25;;;0.90;;
21339;SDS011;10828;47.064;15.422;2022-07-05T13:23:45;2.15;;;1.10;;
21339;SDS011;10828;47.064;15.422;2022-07-05T13:26:13;2.10;;;1.10;;
21339;SDS011;10828;47.064;15.422;2022-07-05T13:28:39;2.55;;;1.20;;
21339;SDS011;10828;47.064;15.422;2022-07-05T13:31:05;3.13;;;1.35;;
21339;SDS011;10828;47.064;15.422;2022-07-05T13:33:31;3.47;;;1.50;;
21339;SDS011;10828;47.064;15.422;2022-07-05T13:35:57;3.60;;;1.00;;
21339;SDS011;10828;47.064;15.422;2022-07-05T13:38:23;2.67;;;1.10;;
21339;SDS011;10828;47.064;15.422;2022-07-05T13:40:49;2.92;;;1.40;;
21339;SDS011;10828;47.064;15.422;2022-07-05T13:43:16;3.00;;;1.08;;
21339;SDS011;10828;47.064;15.422;2022-07-05T13:45:42;3.40;;;1.10;;
21339;SDS011;10828;47.064;15.422;2022-07-05T13:48:07;2.95;;;1.30;;
21339;SDS011;10828;47.064;15.422;2022-07-05T13:50:40;1.75;;;1.00;;
21339;SDS011;10828;47.064;15.422;2022-07-05T13:53:06;3.58;;;1.23;;
21339;SDS011;10828;47.064;15.422;2022-07-05T13:55:32;5.20;;;1.35;;
21339;SDS011;10828;47.064;15.422;2022-07-05T13:57:58;4.20;;;1.33;;
21339;SDS011;10828;47.064;15.422;2022-07-05T14:00:24;2.08;;;1.02;;
21339;SDS011;10828;47.064;15.422;2022-07-05T14:02:51;4.25;;;1.30;;
21339;SDS011;10828;47.064;15.422;2022-07-05T14:05:17;3.22;;;1.08;;
21339;SDS011;10828;47.064;15.422;2022-07-05T14:07:45;1.90;;;1.20;;
21339;SDS011;10828;47.064;15.422;2022-07-05T14:10:11;4.72;;;1.30;;
21339;SDS011;10828;47.064;15.422;2022-07-05T14:12:37;3.70;;;1.30;;
21339;SDS011;10828;47.064;15.422;2022-07-05T14:15:04;2.72;;;1.30;;
21339;SDS011;10828;47.064;15.422;2022-07-05T14:17:30;2.92;;;1.10;;
21339;SDS011;10828;47.064;15.422;2022-07-05T14:19:56;4.47;;;1.30;;
21339;SDS011;10828;47.064;15.422;2022-07-05T14:22:22;11.18;;;1.50;;
21339;SDS011;10828;47.064;15.422;2022-07-05T14:24:48;3.50;;;1.20;;
21339;SDS011;10828;47.064;15.422;2022-07-05T14:27:14;4.38;;;1.10;;
21339;SDS011;10828;47.064;15.422;2022-07-05T14:29:40;3.00;;;1.20;;
21339;SDS011;10828;47.064;15.422;2022-07-05T14:32:06;4.20;;;1.50;;
21339;SDS011;10828;47.064;15.422;2022-07-05T14:34:33;2.38;;;1.20;;
21339;SDS011;10828;47.064;15.422;2022-07-05T14:37:00;2.30;;;1.27;;
21339;SDS011;10828;47.064;15.422;2022-07-05T14:39:26;2.03;;;0.98;;
21339;SDS011;10828;47.064;15.422;2022-07-05T14:41:53;2.80;;;1.23;;
21339;SDS011;10828;47.064;15.422;2022-07-05T14:44:20;4.10;;;1.10;;
21339;SDS011;10828;47.064;15.422;2022-07-05T14:46:46;2.70;;;1.30;;
21339;SDS011;10828;47.064;15.422;2022-07-05T14:49:12;4.28;;;1.60;;
21339;SDS011;10828;47.064;15.422;2022-07-05T14:51:38;1.98;;;1.00;;
21339;SDS011;10828;47.064;15.422;2022-07-05T14:54:04;3.20;;;1.00;;
21339;SDS011;10828;47.064;15.422;2022-07-05T14:56:32;2.13;;;1.20;;
21339;SDS011;10828;47.064;15.422;2022-07-05T14:58:58;3.03;;;1.52;;
21339;SDS011;10828;47.064;15.422;2022-07-05T15:01:24;2.63;;;1.27;;
21339;SDS011;10828;47.064;15.422;2022-07-05T15:03:52;6.45;;;2.33;;
21339;SDS011;10828;47.064;15.422;2022-07-05T15:06:18;3.47;;;1.55;;
21339;SDS011;10828;47.064;15.422;2022-07-05T15:08:46;2.30;;;1.20;;
21339;SDS011;10828;47.064;15.422;2022-07-05T15:11:12;2.67;;;1.45;;
21339;SDS011;10828;47.064;15.422;2022-07-05T15:13:39;4.50;;;1.60;;
21339;SDS011;10828;47.064;15.422;2022-07-05T15:16:05;2.60;;;1.20;;
21339;SDS011;10828;47.064;15.422;2022-07-05T15:18:31;4.85;;;1.60;;
21339;SDS011;10828;47.064;15.422;2022-07-05T15:20:57;3.42;;;1.15;;